Terminal Aerodrome Forecast
Issued by NWS Jackson, MS

Home | Current Version | Previous Version | Text Only | Print | Product List | Glossary On
Versions: 1 2 3 4 5 6 7 8 9 10 11 12 13 14 15 16 17
000
FTUS44 KJAN 230532
TAFMEI
TAF
KMEI 230532Z 2306/2406 26014G21KT P6SM VCSH OVC009
     FM230800 30015G21KT P6SM OVC015
     FM240000 32008KT P6SM OVC015=

USA.gov is the U.S. government's official web portal to all federal, state and local government web resources and services.